createdAt,value
2018-07-03T00:02:05.934Z,0.50
2018-07-03T00:04:34.166Z,0.75
2018-07-03T00:07:02.363Z,0.42
2018-07-03T00:09:30.608Z,0.95
2018-07-03T00:11:58.801Z,0.60
2018-07-03T00:14:27.017Z,0.40
2018-07-03T00:17:00.701Z,0.82
2018-07-03T00:19:28.884Z,0.75
2018-07-03T00:21:57.101Z,0.60
2018-07-03T00:24:25.330Z,0.35
2018-07-03T00:26:58.982Z,0.50
2018-07-03T00:29:27.585Z,0.42
2018-07-03T00:31:56.037Z,0.70
2018-07-03T00:34:24.285Z,0.70
2018-07-03T00:36:52.549Z,0.85
2018-07-03T00:39:20.750Z,0.50
2018-07-03T00:42:04.082Z,0.60
2018-07-03T00:44:32.272Z,0.80
2018-07-03T00:47:00.550Z,0.68
2018-07-03T00:49:28.744Z,0.70
2018-07-03T00:51:56.900Z,0.42
2018-07-03T00:54:25.085Z,0.70
2018-07-03T00:56:53.270Z,0.80
2018-07-03T00:59:21.485Z,0.60
2018-07-03T01:01:49.650Z,0.62
2018-07-03T01:04:17.967Z,0.50
2018-07-03T01:06:46.227Z,0.47
2018-07-03T01:09:14.472Z,0.80
2018-07-03T01:11:43.297Z,0.70
2018-07-03T01:17:27.806Z,1.00
2018-07-03T01:19:55.998Z,1.15
2018-07-03T01:22:24.276Z,0.40
2018-07-03T01:24:52.495Z,0.70
2018-07-03T01:27:20.763Z,0.50
2018-07-03T01:29:48.957Z,0.70
2018-07-03T01:32:17.248Z,0.65
2018-07-03T01:34:45.515Z,0.70
2018-07-03T01:37:13.695Z,0.70
2018-07-03T01:39:42.034Z,0.60
2018-07-03T01:42:10.298Z,0.55
2018-07-03T01:44:38.577Z,0.70
2018-07-03T01:47:06.739Z,0.82
2018-07-03T01:49:35.006Z,0.50
2018-07-03T01:52:03.238Z,0.80
2018-07-03T01:54:31.454Z,0.60
2018-07-03T01:56:59.679Z,0.73
2018-07-03T01:59:27.982Z,0.70
2018-07-03T02:01:56.373Z,0.75
2018-07-03T02:04:24.611Z,0.53
2018-07-03T02:06:52.770Z,0.87
2018-07-03T02:09:20.957Z,0.40
2018-07-03T02:11:49.275Z,0.70
2018-07-03T02:14:17.484Z,0.87
2018-07-03T02:16:45.858Z,0.80
2018-07-03T02:19:14.028Z,1.17
2018-07-03T02:21:42.328Z,0.60
2018-07-03T02:24:10.552Z,0.67
2018-07-03T02:26:38.826Z,0.60
2018-07-03T02:29:07.712Z,0.63
2018-07-03T02:31:36.034Z,0.50
2018-07-03T02:34:04.387Z,0.70
2018-07-03T02:36:32.601Z,0.70
2018-07-03T02:39:00.825Z,0.60
2018-07-03T02:41:29.087Z,0.77
2018-07-03T02:43:57.401Z,0.60
2018-07-03T02:46:25.719Z,0.53
2018-07-03T02:48:54.054Z,0.60
2018-07-03T02:51:22.286Z,0.70
2018-07-03T02:53:50.597Z,0.60
2018-07-03T02:56:18.788Z,0.80
2018-07-03T02:58:46.974Z,0.80
2018-07-03T03:01:15.188Z,0.80
2018-07-03T03:03:43.454Z,0.80
2018-07-03T03:06:11.745Z,0.77
2018-07-03T03:08:39.982Z,0.70
2018-07-03T03:11:08.310Z,0.63
2018-07-03T03:13:36.536Z,1.00
2018-07-03T03:16:04.859Z,0.90
2018-07-03T03:18:33.042Z,0.73
2018-07-03T03:21:01.280Z,0.80
2018-07-03T03:23:29.492Z,0.87
2018-07-03T03:25:57.709Z,0.73
2018-07-03T03:28:26.027Z,0.70
2018-07-03T03:30:54.204Z,0.90
2018-07-03T03:33:22.514Z,0.80
2018-07-03T03:35:50.789Z,0.60
2018-07-03T03:38:19.041Z,0.70
2018-07-03T03:40:47.250Z,0.60
2018-07-03T03:43:15.471Z,0.70
2018-07-03T03:45:43.688Z,0.77
2018-07-03T03:48:11.978Z,0.90
2018-07-03T03:50:40.249Z,0.73
2018-07-03T03:53:08.471Z,1.10
2018-07-03T03:55:36.683Z,0.75
2018-07-03T03:58:04.986Z,0.77
2018-07-03T04:00:33.191Z,1.00
2018-07-03T04:03:01.522Z,0.80
2018-07-03T04:05:29.756Z,0.85
2018-07-03T04:07:58.064Z,0.70
2018-07-03T04:10:26.254Z,0.70
2018-07-03T04:12:54.496Z,0.70
2018-07-03T04:15:22.727Z,0.80
2018-07-03T04:17:50.958Z,0.80
2018-07-03T04:20:19.274Z,2.75
2018-07-03T04:22:47.478Z,0.85
2018-07-03T04:25:15.690Z,0.80
2018-07-03T04:27:43.941Z,0.82
2018-07-03T04:30:12.221Z,0.70
2018-07-03T04:32:40.472Z,0.60
2018-07-03T04:35:08.681Z,0.70
2018-07-03T04:37:36.869Z,0.70
2018-07-03T04:40:05.098Z,0.70
2018-07-03T04:42:33.288Z,0.80
2018-07-03T04:45:01.553Z,0.72
2018-07-03T04:47:29.856Z,0.80
2018-07-03T04:49:58.082Z,0.80
2018-07-03T04:52:26.383Z,0.70
2018-07-03T04:54:54.722Z,0.78
2018-07-03T04:57:22.921Z,0.70
2018-07-03T04:59:51.100Z,0.78
2018-07-03T05:02:19.325Z,0.80
2018-07-03T05:04:47.525Z,1.02
2018-07-03T05:07:15.891Z,0.70
2018-07-03T05:09:44.152Z,0.80
2018-07-03T05:12:12.415Z,0.78
2018-07-03T05:14:40.603Z,0.70
2018-07-03T05:17:08.791Z,0.80
2018-07-03T05:19:36.974Z,0.78
2018-07-03T05:22:05.333Z,0.80
2018-07-03T05:24:33.552Z,0.72
2018-07-03T05:27:01.844Z,1.00
2018-07-03T05:29:30.053Z,0.60
2018-07-03T05:31:58.278Z,0.60
2018-07-03T05:34:26.741Z,0.80
2018-07-03T05:36:54.800Z,0.82
2018-07-03T05:39:22.915Z,0.70
2018-07-03T05:41:51.133Z,0.77
2018-07-03T05:44:19.393Z,0.70
2018-07-03T05:46:47.600Z,0.60
2018-07-03T05:49:15.869Z,0.50
2018-07-03T05:51:44.068Z,0.65
2018-07-03T05:54:12.602Z,0.50
2018-07-03T05:56:40.877Z,0.60
2018-07-03T05:59:09.073Z,0.40
2018-07-03T06:01:37.223Z,0.70
2018-07-03T06:04:05.521Z,0.40
2018-07-03T06:06:33.702Z,0.70
2018-07-03T06:09:02.113Z,0.45
2018-07-03T06:11:30.282Z,0.40
2018-07-03T06:13:58.516Z,0.40
2018-07-03T06:16:26.726Z,0.42
2018-07-03T06:18:54.890Z,0.63
2018-07-03T06:21:23.099Z,0.50
2018-07-03T06:23:51.320Z,0.50
2018-07-03T06:26:19.585Z,0.45
2018-07-03T06:28:48.065Z,0.50
2018-07-03T06:31:16.279Z,0.47
2018-07-03T06:33:44.480Z,0.42
2018-07-03T06:36:12.822Z,0.50
2018-07-03T06:38:41.244Z,0.40
2018-07-03T06:41:09.216Z,0.50
2018-07-03T06:43:37.448Z,0.40
2018-07-03T06:46:05.730Z,0.40
2018-07-03T06:48:33.982Z,0.72
2018-07-03T06:51:02.173Z,0.50
2018-07-03T06:53:30.718Z,0.62
2018-07-03T06:55:58.712Z,0.45
2018-07-03T06:58:26.926Z,0.40
2018-07-03T07:00:55.105Z,0.30
2018-07-03T07:03:23.302Z,0.50
2018-07-03T07:05:51.461Z,0.42
2018-07-03T07:08:19.805Z,0.40
2018-07-03T07:10:48.032Z,0.40
2018-07-03T07:13:16.333Z,0.40
2018-07-03T07:15:44.735Z,0.40
2018-07-03T07:18:12.931Z,0.68
2018-07-03T07:20:41.211Z,0.60
2018-07-03T07:23:09.414Z,0.40
2018-07-03T07:25:37.539Z,0.53
2018-07-03T07:28:05.721Z,0.62
2018-07-03T07:30:33.930Z,0.45
2018-07-03T07:33:02.183Z,0.50
2018-07-03T07:35:30.397Z,0.42
2018-07-03T07:37:58.681Z,0.47
2018-07-03T07:40:27.016Z,0.35
2018-07-03T07:42:55.242Z,0.80
2018-07-03T07:45:23.445Z,0.37
2018-07-03T07:47:51.725Z,0.40
2018-07-03T07:50:20.281Z,0.40
2018-07-03T07:52:48.471Z,0.30
2018-07-03T07:55:28.525Z,0.60
2018-07-03T07:57:56.716Z,0.30
2018-07-03T08:00:24.893Z,0.90
2018-07-03T08:02:53.091Z,0.25
2018-07-03T08:05:21.322Z,0.45
2018-07-03T08:07:49.484Z,0.35
2018-07-03T08:10:18.801Z,0.50
2018-07-03T08:12:46.966Z,0.35
2018-07-03T08:15:15.144Z,0.40
2018-07-03T08:17:43.401Z,0.65
2018-07-03T08:20:11.604Z,0.40
2018-07-03T08:22:39.997Z,0.60
2018-07-03T08:25:08.246Z,0.53
2018-07-03T08:27:36.437Z,0.55
2018-07-03T08:30:05.534Z,0.40
2018-07-03T08:32:33.827Z,0.55
2018-07-03T08:35:02.059Z,0.40
2018-07-03T08:37:30.300Z,0.50
2018-07-03T08:39:58.556Z,0.30
2018-07-03T08:42:26.821Z,0.57
2018-07-03T08:44:55.076Z,0.60
2018-07-03T08:47:23.358Z,0.40
2018-07-03T08:49:51.536Z,0.37
2018-07-03T08:52:19.803Z,0.50
2018-07-03T08:54:48.107Z,0.40
2018-07-03T08:57:16.531Z,0.40
2018-07-03T08:59:44.755Z,0.50
2018-07-03T09:02:12.992Z,0.62
2018-07-03T09:04:41.176Z,0.50
2018-07-03T09:07:09.709Z,0.40
2018-07-03T09:09:38.056Z,0.37
2018-07-03T09:12:06.249Z,0.45
2018-07-03T09:14:34.460Z,0.42
2018-07-03T09:17:07.052Z,0.15
2018-07-03T09:19:35.360Z,0.40
2018-07-03T09:22:03.646Z,0.53
2018-07-03T09:24:31.890Z,0.40
2018-07-03T09:27:00.180Z,0.50
2018-07-03T09:29:28.392Z,0.40
2018-07-03T09:31:56.627Z,0.50
2018-07-03T09:34:24.805Z,0.42
2018-07-03T09:36:53.034Z,0.40
2018-07-03T09:39:21.470Z,0.50
2018-07-03T09:41:49.731Z,0.47
2018-07-03T09:44:18.015Z,0.37
2018-07-03T09:46:46.332Z,0.68
2018-07-03T09:49:14.522Z,0.35
2018-07-03T09:51:42.786Z,0.40
2018-07-03T09:54:11.007Z,0.40
2018-07-03T09:56:39.209Z,0.40
2018-07-03T09:59:07.424Z,0.40
2018-07-03T10:01:35.682Z,0.40
2018-07-03T10:04:03.956Z,0.40
2018-07-03T10:09:46.246Z,0.42
2018-07-03T10:12:14.590Z,0.30
2018-07-03T10:14:42.821Z,0.30
2018-07-03T10:17:12.886Z,0.40
2018-07-03T10:19:42.114Z,0.40
2018-07-03T10:22:10.614Z,0.47
2018-07-03T10:24:38.840Z,0.40
2018-07-03T10:27:07.265Z,0.42
2018-07-03T10:29:35.925Z,0.47
2018-07-03T10:32:04.116Z,0.70
2018-07-03T10:34:32.350Z,0.35
2018-07-03T10:37:01.377Z,0.35
2018-07-03T10:39:29.590Z,0.30
2018-07-03T10:41:57.825Z,0.33
2018-07-03T10:44:26.066Z,0.40
2018-07-03T10:46:54.324Z,0.50
2018-07-03T10:49:22.554Z,0.60
2018-07-03T10:51:51.165Z,0.47
2018-07-03T10:54:19.384Z,0.50
2018-07-03T10:56:47.602Z,0.47
2018-07-03T10:59:15.960Z,0.40
2018-07-03T11:01:44.203Z,0.50
2018-07-03T11:04:12.521Z,0.40
2018-07-03T11:06:40.685Z,0.50
2018-07-03T11:09:10.647Z,0.50
2018-07-03T11:11:38.832Z,0.50
2018-07-03T11:14:07.154Z,0.20
2018-07-03T11:16:35.302Z,0.55
2018-07-03T11:19:03.670Z,0.68
2018-07-03T11:21:32.152Z,0.40
2018-07-03T11:24:00.442Z,0.70
2018-07-03T11:26:28.729Z,0.53
2018-07-03T11:28:56.969Z,0.40
2018-07-03T11:31:25.188Z,0.40
2018-07-03T11:33:53.412Z,0.33
2018-07-03T11:36:21.663Z,0.45
2018-07-03T11:38:50.013Z,0.30
2018-07-03T11:41:18.290Z,0.50
2018-07-03T11:43:46.500Z,0.30
2018-07-03T11:46:14.730Z,0.40
2018-07-03T11:48:42.959Z,0.45
2018-07-03T11:51:11.181Z,1.27
2018-07-03T11:53:39.429Z,0.30
2018-07-03T11:56:07.645Z,0.40
2018-07-03T11:58:35.824Z,0.40
2018-07-03T12:01:04.139Z,0.45
2018-07-03T12:03:32.438Z,0.60
2018-07-03T12:06:00.760Z,0.50
2018-07-03T12:08:28.936Z,0.42
2018-07-03T12:10:57.104Z,0.40
2018-07-03T12:13:25.346Z,0.65
2018-07-03T12:15:53.550Z,0.50
2018-07-03T12:18:27.313Z,0.60
2018-07-03T12:20:55.844Z,0.40
2018-07-03T12:23:24.173Z,0.50
2018-07-03T12:25:52.437Z,0.57
2018-07-03T12:28:20.629Z,0.30
2018-07-03T12:30:48.814Z,0.47
2018-07-03T12:33:17.058Z,0.47
2018-07-03T12:35:45.348Z,0.50
2018-07-03T12:38:13.531Z,0.60
2018-07-03T12:40:41.884Z,0.42
2018-07-03T12:43:10.107Z,0.37
2018-07-03T12:45:38.396Z,0.60
2018-07-03T12:48:06.654Z,0.40
2018-07-03T12:50:34.924Z,0.50
2018-07-03T12:53:03.137Z,0.50
2018-07-03T12:55:31.447Z,0.40
2018-07-03T12:57:59.645Z,0.47
2018-07-03T13:00:27.886Z,0.40
2018-07-03T13:02:56.144Z,0.50
2018-07-03T13:05:24.613Z,0.50
2018-07-03T13:07:52.849Z,0.50
2018-07-03T13:10:21.007Z,0.40
2018-07-03T13:12:49.225Z,0.40
2018-07-03T13:15:17.380Z,0.42
2018-07-03T13:17:45.628Z,0.72
2018-07-03T13:20:13.816Z,0.23
2018-07-03T13:22:42.035Z,0.62
2018-07-03T13:25:11.481Z,0.50
2018-07-03T13:27:39.709Z,0.40
2018-07-03T13:30:08.877Z,0.33
2018-07-03T13:32:37.075Z,0.60
2018-07-03T13:35:06.013Z,0.45
2018-07-03T13:37:34.218Z,0.57
2018-07-03T13:40:02.414Z,0.20
2018-07-03T13:42:30.569Z,0.70
2018-07-03T13:44:58.813Z,0.30
2018-07-03T13:47:27.048Z,0.50
2018-07-03T13:49:55.246Z,0.30
2018-07-03T13:52:23.484Z,0.50
2018-07-03T13:54:51.791Z,0.60
2018-07-03T13:57:20.108Z,0.60
2018-07-03T13:59:48.269Z,0.50
2018-07-03T14:02:16.550Z,0.50
2018-07-03T14:04:44.904Z,0.37
2018-07-03T14:07:13.362Z,0.40
2018-07-03T14:09:41.574Z,0.60
2018-07-03T14:12:10.271Z,0.47
2018-07-03T14:14:38.484Z,0.40
2018-07-03T14:17:06.701Z,0.47
2018-07-03T14:19:34.867Z,0.50
2018-07-03T14:22:03.051Z,0.45
2018-07-03T14:24:31.233Z,0.40
2018-07-03T14:26:59.430Z,0.70
2018-07-03T14:29:28.020Z,0.70
2018-07-03T14:31:56.178Z,0.40
2018-07-03T14:34:24.639Z,0.60
2018-07-03T14:36:52.944Z,0.50
2018-07-03T14:39:21.172Z,0.40
2018-07-03T14:41:49.464Z,0.50
2018-07-03T14:44:17.757Z,0.40
2018-07-03T14:46:45.945Z,0.70
2018-07-03T14:49:14.216Z,0.42
2018-07-03T14:51:42.395Z,0.42
2018-07-03T14:54:10.570Z,0.70
2018-07-03T14:56:38.761Z,0.88
2018-07-03T14:59:06.975Z,0.50
2018-07-03T15:01:35.207Z,0.50
2018-07-03T15:04:03.447Z,0.80
2018-07-03T15:06:32.090Z,0.53
2018-07-03T15:09:00.308Z,0.78
2018-07-03T15:11:28.479Z,0.50
2018-07-03T15:13:56.730Z,0.50
2018-07-03T15:16:24.938Z,0.47
2018-07-03T15:18:58.438Z,0.70
2018-07-03T15:21:26.637Z,0.50
2018-07-03T15:23:54.918Z,0.50
2018-07-03T15:26:23.181Z,0.65
2018-07-03T15:28:51.554Z,0.78
2018-07-03T15:31:19.772Z,0.70
2018-07-03T15:33:48.148Z,0.60
2018-07-03T15:36:16.409Z,0.72
2018-07-03T15:38:44.681Z,0.60
2018-07-03T15:41:12.893Z,0.70
2018-07-03T15:43:47.065Z,0.50
2018-07-03T15:46:15.226Z,0.53
2018-07-03T15:48:44.305Z,1.00
2018-07-03T15:51:12.544Z,0.60
2018-07-03T15:53:40.740Z,0.98
2018-07-03T15:56:09.023Z,0.50
2018-07-03T15:58:37.180Z,0.60
2018-07-03T16:01:05.671Z,0.80
2018-07-03T16:03:58.970Z,2.87
2018-07-03T16:06:38.450Z,0.80
2018-07-03T16:09:10.792Z,0.90
2018-07-03T16:11:39.594Z,1.00
2018-07-03T16:14:08.335Z,0.90
2018-07-03T16:16:36.553Z,1.10
2018-07-03T16:19:10.102Z,0.60
2018-07-03T16:21:38.341Z,0.60
2018-07-03T16:24:06.986Z,1.42
2018-07-03T16:26:35.182Z,0.68
2018-07-03T16:29:03.577Z,1.07
2018-07-03T16:31:31.807Z,0.68
2018-07-03T16:34:00.041Z,1.12
2018-07-03T16:36:28.264Z,0.90
2018-07-03T16:38:56.440Z,0.80
2018-07-03T16:41:24.656Z,0.70
2018-07-03T16:43:52.837Z,1.00
2018-07-03T16:46:20.981Z,0.70
2018-07-03T16:48:49.186Z,0.70
2018-07-03T16:51:17.373Z,0.90
2018-07-03T16:53:45.606Z,0.90
2018-07-03T16:56:13.758Z,0.75
2018-07-03T16:58:42.075Z,0.90
2018-07-03T17:01:10.324Z,1.15
2018-07-03T17:03:38.530Z,0.90
2018-07-03T17:06:07.270Z,0.98
2018-07-03T17:08:35.460Z,1.00
2018-07-03T17:11:04.212Z,0.90
2018-07-03T17:13:32.525Z,1.05
2018-07-03T17:16:00.852Z,0.90
2018-07-03T17:18:30.826Z,0.62
2018-07-03T17:20:59.080Z,0.80
2018-07-03T17:23:27.354Z,1.10
2018-07-03T17:25:55.600Z,0.60
2018-07-03T17:28:23.891Z,1.00
2018-07-03T17:30:52.162Z,0.55
2018-07-03T17:33:20.489Z,0.90
2018-07-03T17:35:48.779Z,0.90
2018-07-03T17:38:17.332Z,0.88
2018-07-03T17:40:56.904Z,0.75
2018-07-03T17:43:35.215Z,1.00
2018-07-03T17:46:06.447Z,0.75
2018-07-03T17:48:41.197Z,0.70
2018-07-03T17:51:09.469Z,1.00
2018-07-03T17:53:37.797Z,1.00
2018-07-03T17:56:06.032Z,1.40
2018-07-03T17:58:34.256Z,0.80
2018-07-03T18:01:02.467Z,1.15
2018-07-03T18:03:30.674Z,0.70
2018-07-03T18:05:58.889Z,0.80
2018-07-03T18:08:27.054Z,0.82
2018-07-03T18:10:55.281Z,0.70
2018-07-03T18:13:23.497Z,1.10
2018-07-03T18:15:51.768Z,0.72
2018-07-03T18:18:19.999Z,0.78
2018-07-03T18:20:48.322Z,0.60
2018-07-03T18:23:16.681Z,0.88
2018-07-03T18:25:44.896Z,0.90
2018-07-03T18:28:13.049Z,0.98
2018-07-03T18:30:41.281Z,0.75
2018-07-03T18:33:09.460Z,0.62
2018-07-03T18:35:37.749Z,0.90
2018-07-03T18:38:06.057Z,1.10
2018-07-03T18:40:35.234Z,0.70
2018-07-03T18:43:03.386Z,0.78
2018-07-03T18:45:31.678Z,1.00
2018-07-03T18:47:59.936Z,1.00
2018-07-03T18:50:28.223Z,0.80
2018-07-03T18:52:56.446Z,1.00
2018-07-03T18:55:24.632Z,0.85
2018-07-03T18:57:52.915Z,0.80
2018-07-03T19:00:21.212Z,0.70
2018-07-03T19:02:49.461Z,0.80
2018-07-03T19:05:17.717Z,0.70
2018-07-03T19:07:46.070Z,0.98
2018-07-03T19:10:14.327Z,0.95
2018-07-03T19:12:42.582Z,0.78
2018-07-03T19:15:10.941Z,1.25
2018-07-03T19:17:39.266Z,0.85
2018-07-03T19:20:07.443Z,0.70
2018-07-03T19:22:35.681Z,1.05
2018-07-03T19:25:04.316Z,0.90
2018-07-03T19:27:32.480Z,1.00
2018-07-03T19:30:00.688Z,1.07
2018-07-03T19:32:28.960Z,0.70
2018-07-03T19:34:57.166Z,0.80
2018-07-03T19:37:25.491Z,0.88
2018-07-03T19:39:54.090Z,0.90
2018-07-03T19:42:22.394Z,0.93
2018-07-03T19:44:50.720Z,0.72
2018-07-03T19:47:18.891Z,0.80
2018-07-03T19:49:47.125Z,0.88
2018-07-03T19:52:15.286Z,0.62
2018-07-03T19:54:43.542Z,0.80
2018-07-03T19:57:11.692Z,0.88
2018-07-03T19:59:40.065Z,1.05
2018-07-03T20:02:08.335Z,0.93
2018-07-03T20:04:36.685Z,0.80
2018-07-03T20:07:04.954Z,1.00
2018-07-03T20:09:33.163Z,0.85
2018-07-03T20:12:01.412Z,1.15
2018-07-03T20:14:29.607Z,0.70
2018-07-03T20:16:57.801Z,0.82
2018-07-03T20:19:26.044Z,0.95
2018-07-03T20:21:54.298Z,0.75
2018-07-03T20:24:22.486Z,0.82
2018-07-03T20:26:51.056Z,1.00
2018-07-03T20:29:19.304Z,0.85
2018-07-03T20:31:47.505Z,0.80
2018-07-03T20:34:15.752Z,0.90
2018-07-03T20:36:43.963Z,0.82
2018-07-03T20:39:12.467Z,0.85
2018-07-03T20:41:40.696Z,0.90
2018-07-03T20:44:08.900Z,1.00
2018-07-03T20:46:37.144Z,1.57
2018-07-03T20:49:05.388Z,0.75
2018-07-03T20:51:33.628Z,0.72
2018-07-03T20:54:01.821Z,1.75
2018-07-03T20:56:30.069Z,1.00
2018-07-03T20:58:58.519Z,0.80
2018-07-03T21:01:26.781Z,0.80
2018-07-03T21:03:55.113Z,1.35
2018-07-03T21:06:23.540Z,1.22
2018-07-03T21:08:51.743Z,0.98
2018-07-03T21:11:19.960Z,1.25
2018-07-03T21:13:48.209Z,1.00
2018-07-03T21:16:16.428Z,0.93
2018-07-03T21:18:44.858Z,1.15
2018-07-03T21:21:13.863Z,1.20
2018-07-03T21:23:42.139Z,3.12
2018-07-03T21:26:10.379Z,1.22
2018-07-03T21:28:38.574Z,1.27
2018-07-03T21:31:06.793Z,1.27
2018-07-03T21:33:35.060Z,1.25
2018-07-03T21:36:03.297Z,1.30
2018-07-03T21:38:31.545Z,1.30
2018-07-03T21:40:59.802Z,1.40
2018-07-03T21:43:28.018Z,1.25
2018-07-03T21:45:56.209Z,1.60
2018-07-03T21:48:24.429Z,1.45
2018-07-03T21:50:52.629Z,1.30
2018-07-03T21:53:21.037Z,1.30
2018-07-03T21:55:49.282Z,1.45
2018-07-03T21:58:17.479Z,1.30
2018-07-03T22:00:45.741Z,1.25
2018-07-03T22:03:14.010Z,1.20
2018-07-03T22:05:42.581Z,1.52
2018-07-03T22:10:34.885Z,1.42
2018-07-03T22:13:03.542Z,1.50
2018-07-03T22:15:32.162Z,1.70
2018-07-03T22:18:00.380Z,1.50
2018-07-03T22:20:28.678Z,1.52
2018-07-03T22:22:56.970Z,1.47
2018-07-03T22:25:25.244Z,1.70
2018-07-03T22:27:53.572Z,1.40
2018-07-03T22:30:21.797Z,1.62
2018-07-03T22:32:50.026Z,1.45
2018-07-03T22:35:18.367Z,1.40
2018-07-03T22:37:46.533Z,1.70
2018-07-03T22:40:14.756Z,1.55
2018-07-03T22:42:42.941Z,1.50
2018-07-03T22:45:11.125Z,1.60
2018-07-03T22:47:39.571Z,1.70
2018-07-03T22:50:07.787Z,1.72
2018-07-03T22:52:35.972Z,1.90
2018-07-03T22:55:04.176Z,1.52
2018-07-03T22:57:32.426Z,1.52
2018-07-03T23:00:00.750Z,1.98
2018-07-03T23:02:28.940Z,1.60
2018-07-03T23:04:57.188Z,2.00
2018-07-03T23:07:25.663Z,2.20
2018-07-03T23:09:54.106Z,1.32
2018-07-03T23:12:22.334Z,1.80
2018-07-03T23:14:51.745Z,2.50
2018-07-03T23:17:20.037Z,1.57
2018-07-03T23:19:49.081Z,2.25
2018-07-03T23:22:17.342Z,1.75
2018-07-03T23:24:45.590Z,1.85
2018-07-03T23:27:14.791Z,2.05
2018-07-03T23:29:43.047Z,1.75
2018-07-03T23:32:11.724Z,1.75
2018-07-03T23:34:40.500Z,1.55
2018-07-03T23:37:08.826Z,1.42
2018-07-03T23:39:37.081Z,1.42
2018-07-03T23:42:05.318Z,1.45
2018-07-03T23:44:33.568Z,1.90
2018-07-03T23:47:13.168Z,1.77
2018-07-03T23:49:52.689Z,2.67
2018-07-03T23:52:32.342Z,1.75
2018-07-03T23:55:12.282Z,1.98
2018-07-03T23:57:51.725Z,1.70
